Time;durP1;ratioP1;P1;durP2;ratioP2;P2;SDS_P1;SDS_P2;PMS_P1;PMS_P2;Temp;Humidity;BMP_temperature;BMP_pressure;BME280_temperature;BME280_humidity;BME280_pressure;Samples;Min_cycle;Max_cycle;Signal;HPM_P1;HPM_P2
2022/03/15 00:01:40;;;;;;;2.83;2.50;;;12.00;95.00;;;;;;5069864;28;20466;-47
2022/03/15 00:04:08;;;;;;;2.50;2.10;;;12.00;95.00;;;;;;5070174;28;20461;-50
2022/03/15 00:06:36;;;;;;;2.40;1.83;;;12.00;95.00;;;;;;5045208;28;20475;-48
2022/03/15 00:09:05;;;;;;;3.20;2.00;;;12.00;95.10;;;;;;5070816;28;20799;-47
2022/03/15 00:11:34;;;;;;;2.10;1.70;;;12.00;95.10;;;;;;5069671;28;20566;-48
2022/03/15 00:14:09;;;;;;;2.40;2.20;;;11.90;95.10;;;;;;5068897;28;20450;-48
2022/03/15 00:16:37;;;;;;;2.67;2.47;;;11.90;95.00;;;;;;5055355;28;20596;-50
2022/03/15 00:19:06;;;;;;;2.97;1.70;;;11.90;95.00;;;;;;5068410;28;20437;-47
2022/03/15 00:21:35;;;;;;;1.70;1.60;;;11.90;95.00;;;;;;5067891;28;20474;-48
2022/03/15 00:24:04;;;;;;;3.07;2.10;;;11.90;95.00;;;;;;5069956;28;20793;-48
2022/03/15 00:26:32;;;;;;;2.60;1.90;;;11.90;95.00;;;;;;5069211;28;20492;-47
2022/03/15 00:29:06;;;;;;;2.50;1.97;;;11.90;95.00;;;;;;5070831;28;21012;-47
2022/03/15 00:31:35;;;;;;;3.40;2.20;;;11.90;95.00;;;;;;5044349;28;20483;-48
2022/03/15 00:34:03;;;;;;;3.30;3.00;;;11.90;95.10;;;;;;5069867;28;20430;-48
2022/03/15 00:36:35;;;;;;;3.57;1.67;;;11.90;95.00;;;;;;5065317;28;20511;-47
2022/03/15 00:39:03;;;;;;;2.30;1.57;;;11.90;95.10;;;;;;5069467;28;20779;-48
2022/03/15 00:41:31;;;;;;;2.77;1.50;;;11.90;95.10;;;;;;5051445;28;21062;-49
2022/03/15 00:44:00;;;;;;;3.30;2.17;;;11.90;95.00;;;;;;5069879;28;20665;-49
2022/03/15 00:46:28;;;;;;;3.60;2.00;;;11.90;95.00;;;;;;5042791;28;20894;-48
2022/03/15 00:48:57;;;;;;;4.00;1.90;;;11.90;95.00;;;;;;5052624;28;20430;-48
2022/03/15 00:51:27;;;;;;;2.10;1.87;;;11.90;95.00;;;;;;5066979;28;20480;-46
2022/03/15 00:53:58;;;;;;;2.67;1.80;;;11.90;95.10;;;;;;5069943;28;20427;-46
2022/03/15 00:56:26;;;;;;;2.67;1.57;;;11.90;95.10;;;;;;5069926;28;20476;-46
2022/03/15 00:58:54;;;;;;;2.70;1.67;;;11.90;95.10;;;;;;5062389;28;20481;-46
2022/03/15 01:01:22;;;;;;;2.90;1.63;;;11.90;95.10;;;;;;5059139;28;20492;-49
2022/03/15 01:03:50;;;;;;;2.70;1.70;;;11.90;95.00;;;;;;5069822;28;20488;-49
2022/03/15 01:06:18;;;;;;;1.93;1.80;;;11.90;95.10;;;;;;5050310;28;21004;-47
2022/03/15 01:08:46;;;;;;;1.93;1.63;;;11.80;95.00;;;;;;5073793;28;20430;-47
2022/03/15 01:11:16;;;;;;;1.80;1.63;;;11.80;95.00;;;;;;5055637;28;20465;-46
2022/03/15 01:13:44;;;;;;;1.83;1.73;;;11.80;95.10;;;;;;5053913;28;20450;-49
2022/03/15 01:16:13;;;;;;;2.03;1.83;;;11.80;95.10;;;;;;5053465;28;20834;-48
2022/03/15 01:18:43;;;;;;;2.80;2.33;;;11.80;95.00;;;;;;5073607;28;20461;-49
2022/03/15 01:21:12;;;;;;;3.10;1.80;;;11.80;95.00;;;;;;5054128;28;20466;-48
2022/03/15 01:23:40;;;;;;;2.20;1.60;;;11.80;95.00;;;;;;5073253;28;21047;-48
2022/03/15 01:26:09;;;;;;;2.67;1.90;;;11.80;95.00;;;;;;5054839;28;20569;-48
2022/03/15 01:28:39;;;;;;;1.80;1.60;;;11.80;95.00;;;;;;5055062;28;20448;-47
2022/03/15 01:31:07;;;;;;;2.50;1.70;;;11.80;95.10;;;;;;5068330;28;20462;-48
2022/03/15 01:33:35;;;;;;;2.67;2.00;;;11.80;95.10;;;;;;5061478;28;20893;-46
2022/03/15 01:36:04;;;;;;;2.67;2.10;;;11.80;95.60;;;;;;5068152;28;20477;-48
2022/03/15 01:38:35;;;;;;;2.53;1.97;;;11.80;95.00;;;;;;5068862;28;20430;-50
2022/03/15 01:41:03;;;;;;;3.87;1.80;;;11.80;95.20;;;;;;5072239;28;20524;-46
2022/03/15 01:43:33;;;;;;;1.80;1.50;;;11.80;95.20;;;;;;5069849;28;21049;-46
2022/03/15 01:46:03;;;;;;;1.70;1.20;;;11.80;95.20;;;;;;5071115;28;20466;-48
2022/03/15 01:48:32;;;;;;;2.03;1.80;;;11.80;95.20;;;;;;5073050;28;20434;-49
2022/03/15 01:51:01;;;;;;;3.43;1.83;;;11.80;95.10;;;;;;5050824;28;20562;-45
2022/03/15 01:53:29;;;;;;;2.07;1.90;;;11.80;95.10;;;;;;5066830;28;20480;-48
2022/03/15 01:55:57;;;;;;;2.10;1.63;;;11.70;95.00;;;;;;5053653;28;20511;-49
2022/03/15 01:58:25;;;;;;;1.90;1.70;;;11.80;95.20;;;;;;5072112;28;20965;-49
2022/03/15 02:00:53;;;;;;;2.50;1.80;;;11.70;95.50;;;;;;5046672;28;20465;-46
2022/03/15 02:03:24;;;;;;;1.63;1.37;;;11.70;95.10;;;;;;5054685;28;20464;-48
2022/03/15 02:05:52;;;;;;;2.47;1.67;;;11.70;95.10;;;;;;5069072;28;20545;-47
2022/03/15 02:08:20;;;;;;;2.43;1.77;;;11.70;95.60;;;;;;5069330;28;20454;-46
2022/03/15 02:10:48;;;;;;;1.47;1.17;;;11.70;95.10;;;;;;5072093;28;20819;-46
2022/03/15 02:13:21;;;;;;;1.90;1.60;;;11.70;95.10;;;;;;5071798;28;20464;-47
2022/03/15 02:15:50;;;;;;;3.20;1.80;;;11.70;95.10;;;;;;5067851;28;20810;-47
2022/03/15 02:18:19;;;;;;;1.33;1.10;;;11.70;95.10;;;;;;5053522;28;20446;-47
2022/03/15 02:20:48;;;;;;;1.70;1.60;;;11.70;95.10;;;;;;5069293;28;20472;-48
2022/03/15 02:23:17;;;;;;;2.60;1.80;;;11.70;95.10;;;;;;5053651;28;20507;-48
2022/03/15 02:25:45;;;;;;;3.00;1.93;;;11.70;95.10;;;;;;5072238;28;20446;-47
2022/03/15 02:28:13;;;;;;;1.73;1.63;;;11.70;95.10;;;;;;5070925;28;20464;-47
2022/03/15 02:30:41;;;;;;;1.13;1.03;;;11.70;95.10;;;;;;5062054;28;20477;-47
2022/03/15 02:33:09;;;;;;;3.90;2.17;;;11.70;95.20;;;;;;5073030;28;20945;-47
2022/03/15 02:35:38;;;;;;;3.33;1.60;;;11.70;95.30;;;;;;5073927;28;20473;-49
2022/03/15 02:38:08;;;;;;;2.70;1.63;;;11.70;95.20;;;;;;5070148;28;20434;-49
2022/03/15 02:40:36;;;;;;;2.57;1.63;;;11.70;95.10;;;;;;5075638;28;20790;-47
2022/03/15 02:43:04;;;;;;;2.10;1.60;;;11.70;95.10;;;;;;5074825;28;20476;-49
2022/03/15 02:45:32;;;;;;;1.67;1.47;;;11.70;95.20;;;;;;5071215;28;20768;-49
2022/03/15 02:48:00;;;;;;;2.07;1.90;;;11.70;95.10;;;;;;5069081;28;20442;-48
2022/03/15 02:50:28;;;;;;;1.77;1.67;;;11.70;95.20;;;;;;5074812;28;20434;-49
2022/03/15 02:52:56;;;;;;;1.83;1.73;;;11.60;95.20;;;;;;5067064;28;20953;-49
2022/03/15 02:55:26;;;;;;;2.70;1.73;;;11.60;95.20;;;;;;5073638;28;20488;-47
2022/03/15 02:57:55;;;;;;;1.50;1.40;;;11.60;95.20;;;;;;5074425;28;20467;-49
2022/03/15 03:00:23;;;;;;;1.83;1.50;;;11.60;95.20;;;;;;5060217;28;20455;-49
2022/03/15 03:02:51;;;;;;;2.00;1.30;;;11.60;95.20;;;;;;5079604;22;21213;-69
2022/03/15 03:05:20;;;;;;;1.67;1.57;;;11.60;95.20;;;;;;5072929;28;20920;-69
2022/03/15 03:07:48;;;;;;;1.87;1.47;;;11.60;95.20;;;;;;5066074;28;20557;-70
2022/03/15 03:10:17;;;;;;;1.57;1.47;;;11.60;95.20;;;;;;5072820;28;20434;-69
2022/03/15 03:12:49;;;;;;;3.27;1.60;;;11.60;95.20;;;;;;5071973;28;20454;-68
2022/03/15 03:15:20;;;;;;;3.13;1.37;;;11.60;95.20;;;;;;5072410;28;20785;-67
2022/03/15 03:17:49;;;;;;;2.17;1.63;;;11.60;95.20;;;;;;5072238;28;20971;-67
2022/03/15 03:20:19;;;;;;;1.53;1.37;;;11.60;95.20;;;;;;5072766;28;20847;-69
2022/03/15 03:22:49;;;;;;;2.20;1.50;;;11.60;95.20;;;;;;5066278;28;20475;-68
2022/03/15 03:25:18;;;;;;;2.07;1.53;;;11.60;95.20;;;;;;5072396;28;20426;-68
2022/03/15 03:27:48;;;;;;;1.70;1.47;;;11.60;95.20;;;;;;5072246;28;20465;-69
2022/03/15 03:30:17;;;;;;;1.83;1.63;;;11.60;95.30;;;;;;5056376;28;22481;-69
2022/03/15 03:32:46;;;;;;;1.83;1.50;;;11.60;95.30;;;;;;5071514;28;20462;-69
2022/03/15 03:35:14;;;;;;;3.23;1.00;;;11.60;95.30;;;;;;5054536;28;20410;-68
2022/03/15 03:37:42;;;;;;;2.40;1.70;;;11.60;95.40;;;;;;5069121;28;20496;-70
2022/03/15 03:40:10;;;;;;;1.60;1.50;;;11.60;95.30;;;;;;5072253;28;20426;-68
2022/03/15 03:42:38;;;;;;;2.10;1.80;;;11.50;95.40;;;;;;5071109;28;20461;-69
2022/03/15 03:45:09;;;;;;;1.40;1.30;;;11.50;95.30;;;;;;5055115;28;20438;-69
2022/03/15 03:47:37;;;;;;;2.70;1.80;;;11.50;95.30;;;;;;5071355;28;20469;-69
2022/03/15 03:50:08;;;;;;;3.33;1.83;;;11.50;95.30;;;;;;5071773;28;20516;-68
2022/03/15 03:52:36;;;;;;;1.43;1.33;;;11.50;95.30;;;;;;5062551;28;20474;-71
2022/03/15 03:55:05;;;;;;;1.80;1.30;;;11.50;95.30;;;;;;5071668;28;20426;-69
2022/03/15 03:57:34;;;;;;;2.20;1.40;;;11.50;95.40;;;;;;5053426;28;20477;-69
2022/03/15 04:00:03;;;;;;;1.50;1.40;;;11.50;95.30;;;;;;5071572;28;20438;-69
2022/03/15 04:02:41;;;;;;;3.70;1.50;;;11.50;95.80;;;;;;5064232;28;20536;-67
2022/03/15 04:05:10;;;;;;;1.83;1.47;;;11.50;95.30;;;;;;5070665;28;20438;-67
2022/03/15 04:07:39;;;;;;;1.83;1.20;;;11.50;95.30;;;;;;5068033;28;20886;-69
2022/03/15 04:10:08;;;;;;;1.73;1.60;;;11.50;95.40;;;;;;5071300;28;20468;-68
2022/03/15 04:12:36;;;;;;;2.50;1.60;;;11.50;95.40;;;;;;5070690;28;20821;-68
2022/03/15 04:15:06;;;;;;;2.50;1.30;;;11.50;95.40;;;;;;5071673;28;20442;-67
2022/03/15 04:17:34;;;;;;;2.20;2.00;;;11.50;95.40;;;;;;5063288;28;20477;-69
2022/03/15 04:20:04;;;;;;;1.83;1.67;;;11.40;95.40;;;;;;5058774;28;20870;-70
2022/03/15 04:22:32;;;;;;;2.23;1.80;;;11.40;95.30;;;;;;5062990;28;20478;-69
2022/03/15 04:25:00;;;;;;;1.57;1.40;;;11.40;95.30;;;;;;5070744;28;20464;-68
2022/03/15 04:27:28;;;;;;;1.40;1.10;;;11.40;95.50;;;;;;5070980;28;20509;-69
2022/03/15 04:29:57;;;;;;;2.10;1.90;;;11.40;95.50;;;;;;5069745;28;20438;-69
2022/03/15 04:32:25;;;;;;;1.40;1.10;;;11.50;95.30;;;;;;5059928;28;20547;-69
2022/03/15 04:34:53;;;;;;;1.80;1.40;;;11.40;95.30;;;;;;5053155;28;20422;-69
2022/03/15 04:37:23;;;;;;;1.60;1.20;;;11.40;95.40;;;;;;5052484;28;20477;-68
2022/03/15 04:39:51;;;;;;;1.80;1.30;;;11.40;95.40;;;;;;5072156;28;20436;-68
2022/03/15 04:42:20;;;;;;;1.40;1.27;;;11.40;95.40;;;;;;5074883;28;20852;-68
2022/03/15 04:44:48;;;;;;;2.93;1.87;;;11.40;95.40;;;;;;5057278;28;20540;-68
2022/03/15 04:47:17;;;;;;;1.40;1.30;;;11.40;95.40;;;;;;5074536;28;20976;-68
2022/03/15 04:49:47;;;;;;;1.50;1.20;;;11.40;95.40;;;;;;5057715;28;20441;-68
2022/03/15 04:52:15;;;;;;;1.87;1.23;;;11.40;95.50;;;;;;5067894;28;20481;-69
2022/03/15 04:54:45;;;;;;;2.00;1.60;;;11.40;95.40;;;;;;5074803;28;20438;-71
2022/03/15 04:57:13;;;;;;;1.90;1.27;;;11.40;95.50;;;;;;5074672;28;21168;-68
2022/03/15 04:59:41;;;;;;;2.43;1.60;;;11.40;95.40;;;;;;5075742;28;20429;-69
2022/03/15 05:02:09;;;;;;;1.63;1.53;;;11.40;95.50;;;;;;5059973;28;21099;-68
2022/03/15 05:04:37;;;;;;;2.53;1.17;;;11.30;95.40;;;;;;5074471;28;20832;-68
2022/03/15 05:07:05;;;;;;;1.93;1.47;;;11.30;95.50;;;;;;5069061;28;20474;-68
2022/03/15 05:09:34;;;;;;;2.50;1.87;;;11.30;95.40;;;;;;5074879;28;20529;-69
2022/03/15 05:12:04;;;;;;;1.97;1.77;;;11.30;95.40;;;;;;5074119;28;20473;-67
2022/03/15 05:14:32;;;;;;;1.50;1.40;;;11.30;95.50;;;;;;5064340;28;20478;-69
2022/03/15 05:17:00;;;;;;;3.60;1.67;;;11.30;95.40;;;;;;5059060;28;20558;-70
2022/03/15 05:19:28;;;;;;;1.43;1.07;;;11.30;95.40;;;;;;5074924;28;20438;-69
2022/03/15 05:21:58;;;;;;;1.53;1.37;;;11.30;95.50;;;;;;5063660;28;20520;-70
2022/03/15 05:24:26;;;;;;;2.73;1.70;;;11.30;95.50;;;;;;5070354;28;20967;-68
2022/03/15 05:26:54;;;;;;;3.20;1.27;;;11.30;95.50;;;;;;5056427;28;20462;-69
2022/03/15 05:29:24;;;;;;;1.23;1.13;;;11.30;95.60;;;;;;5055610;28;20468;-67
2022/03/15 05:31:52;;;;;;;2.00;1.57;;;11.30;95.60;;;;;;5073916;28;20838;-69
2022/03/15 05:34:20;;;;;;;3.80;1.57;;;11.30;95.50;;;;;;5074086;28;20445;-70
2022/03/15 05:36:49;;;;;;;1.77;1.30;;;11.30;95.60;;;;;;5068905;28;20474;-69
2022/03/15 05:39:17;;;;;;;1.60;1.47;;;11.30;95.40;;;;;;5074284;28;20445;-69
2022/03/15 05:41:45;;;;;;;1.87;1.70;;;11.20;95.40;;;;;;5073496;28;20505;-69
2022/03/15 05:44:13;;;;;;;2.27;1.20;;;11.20;95.40;;;;;;5073829;28;20809;-67
2022/03/15 05:46:43;;;;;;;1.57;1.43;;;11.20;95.50;;;;;;5073254;28;20523;-69
2022/03/15 05:49:11;;;;;;;1.70;1.20;;;11.30;95.60;;;;;;5074067;28;20471;-68
2022/03/15 05:51:39;;;;;;;3.63;1.70;;;11.20;95.60;;;;;;5065231;28;20470;-70
2022/03/15 05:54:08;;;;;;;2.40;1.40;;;11.20;95.50;;;;;;5070635;28;20449;-67
2022/03/15 05:56:39;;;;;;;2.57;1.60;;;11.20;95.60;;;;;;5073037;28;20975;-70
2022/03/15 05:59:08;;;;;;;2.23;1.50;;;11.20;95.60;;;;;;5073865;28;20939;-68
2022/03/15 06:01:36;;;;;;;2.00;1.70;;;11.20;95.60;;;;;;5069425;28;20462;-69
2022/03/15 06:04:07;;;;;;;1.50;1.33;;;11.20;95.60;;;;;;5073412;28;20798;-68
2022/03/15 06:06:35;;;;;;;1.53;1.43;;;11.20;95.60;;;;;;5066258;28;20475;-69
2022/03/15 06:09:04;;;;;;;1.23;1.13;;;11.20;95.60;;;;;;5069276;28;20438;-68
2022/03/15 06:11:32;;;;;;;1.37;1.27;;;11.20;95.60;;;;;;5072740;28;20461;-68
2022/03/15 06:14:00;;;;;;;1.57;1.10;;;11.20;95.60;;;;;;5073560;28;20431;-69
2022/03/15 06:16:28;;;;;;;3.47;1.47;;;11.20;95.70;;;;;;5060123;28;20475;-70
2022/03/15 06:18:56;;;;;;;3.40;1.37;;;11.20;95.70;;;;;;5072884;28;20470;-68
2022/03/15 06:21:26;;;;;;;3.40;1.77;;;11.20;95.70;;;;;;5066174;28;20619;-69
2022/03/15 06:23:54;;;;;;;2.00;1.60;;;11.20;95.70;;;;;;5066986;28;20816;-69
2022/03/15 06:26:35;;;;;;;4.63;1.77;;;11.20;95.50;;;;;;5071414;28;20462;-67
2022/03/15 06:29:04;;;;;;;1.97;1.30;;;11.20;95.60;;;;;;5072041;28;20522;-68
2022/03/15 06:31:33;;;;;;;2.03;1.40;;;11.10;95.60;;;;;;5072899;28;20496;-67
2022/03/15 06:34:02;;;;;;;1.53;1.20;;;11.10;95.60;;;;;;5073132;28;20485;-69
2022/03/15 06:36:34;;;;;;;2.47;1.67;;;11.10;96.20;;;;;;5072712;28;20462;-69
2022/03/15 06:39:03;;;;;;;1.50;1.40;;;11.10;95.60;;;;;;5073252;28;20445;-68
2022/03/15 06:41:31;;;;;;;2.20;1.30;;;11.10;95.60;;;;;;5072366;28;20470;-69
2022/03/15 06:43:59;;;;;;;1.40;1.20;;;11.10;95.80;;;;;;5072576;28;20470;-69
2022/03/15 06:46:27;;;;;;;3.10;2.00;;;11.10;95.70;;;;;;5062182;28;20939;-70
2022/03/15 06:48:56;;;;;;;1.53;0.90;;;11.10;95.70;;;;;;5071593;28;20770;-68
2022/03/15 06:51:24;;;;;;;2.20;1.43;;;11.10;95.70;;;;;;5068472;28;20467;-70
2022/03/15 06:53:54;;;;;;;2.77;1.70;;;11.10;95.80;;;;;;5072461;28;20426;-69
2022/03/15 06:56:22;;;;;;;2.17;1.43;;;11.10;95.70;;;;;;5072420;28;20466;-70
2022/03/15 06:58:51;;;;;;;1.97;1.73;;;11.10;95.70;;;;;;5072352;28;20484;-69
2022/03/15 07:01:19;;;;;;;1.90;1.27;;;11.10;95.80;;;;;;5069383;28;20982;-69
2022/03/15 07:03:49;;;;;;;1.50;1.40;;;11.10;95.80;;;;;;5071834;28;20972;-69
2022/03/15 07:06:17;;;;;;;1.97;1.40;;;11.10;95.80;;;;;;5066761;28;20520;-68
2022/03/15 07:08:45;;;;;;;1.40;1.30;;;11.10;95.80;;;;;;5062708;28;20521;-70
2022/03/15 07:11:15;;;;;;;1.50;1.20;;;11.10;95.90;;;;;;5072286;28;20465;-69
2022/03/15 07:13:43;;;;;;;1.63;1.53;;;11.10;95.80;;;;;;5068837;28;20848;-68
2022/03/15 07:16:13;;;;;;;2.07;1.20;;;11.00;95.80;;;;;;5072127;28;20788;-69
2022/03/15 07:18:41;;;;;;;2.90;1.40;;;11.00;95.80;;;;;;5072322;28;20443;-69
2022/03/15 07:21:09;;;;;;;1.70;1.27;;;11.00;95.90;;;;;;5071323;28;20462;-69
2022/03/15 07:23:37;;;;;;;1.40;1.10;;;11.00;95.80;;;;;;5072892;28;20442;-69
2022/03/15 07:26:07;;;;;;;2.10;1.63;;;11.00;95.80;;;;;;5069975;28;20457;-69
2022/03/15 07:28:37;;;;;;;1.57;1.30;;;11.00;95.90;;;;;;5067363;28;20442;-70
2022/03/15 07:31:05;;;;;;;2.50;1.20;;;11.00;95.90;;;;;;5070811;28;20975;-69
2022/03/15 07:33:33;;;;;;;1.20;1.10;;;11.00;95.90;;;;;;5072298;28;20438;-69
2022/03/15 07:36:02;;;;;;;1.80;1.30;;;11.00;96.00;;;;;;5064448;28;20880;-69
2022/03/15 07:38:32;;;;;;;1.63;1.20;;;11.00;95.90;;;;;;5065467;28;20426;-72
2022/03/15 07:41:01;;;;;;;1.53;1.30;;;11.00;95.90;;;;;;5053689;28;20587;-69
2022/03/15 07:43:30;;;;;;;1.47;1.37;;;11.00;95.90;;;;;;5054540;28;20537;-68
2022/03/15 07:45:59;;;;;;;1.40;1.20;;;11.00;95.90;;;;;;5068945;28;20507;-67
2022/03/15 07:48:27;;;;;;;1.30;1.20;;;11.00;95.90;;;;;;5068176;28;20927;-69
2022/03/15 07:50:57;;;;;;;1.30;1.20;;;11.00;95.90;;;;;;5070156;28;20465;-68
2022/03/15 07:53:26;;;;;;;2.40;1.40;;;11.00;95.90;;;;;;5063588;28;20534;-68
2022/03/15 07:55:55;;;;;;;2.27;1.40;;;11.00;96.00;;;;;;5067958;28;20464;-69
2022/03/15 07:58:26;;;;;;;1.60;1.50;;;11.00;95.90;;;;;;5072077;28;20823;-69
2022/03/15 08:00:56;;;;;;;1.23;1.10;;;11.00;96.00;;;;;;5066227;28;20979;-68
2022/03/15 08:03:26;;;;;;;2.80;1.37;;;11.00;96.00;;;;;;5071890;28;20916;-68
2022/03/15 08:05:54;;;;;;;2.13;1.30;;;11.00;96.00;;;;;;5069353;28;20477;-69
2022/03/15 08:08:23;;;;;;;6.40;1.57;;;11.00;96.00;;;;;;5051959;28;20430;-67
2022/03/15 08:10:51;;;;;;;2.80;1.27;;;10.90;96.00;;;;;;5058069;28;20470;-68
2022/03/15 08:13:19;;;;;;;1.50;1.20;;;11.00;96.00;;;;;;5071016;28;20822;-68
2022/03/15 08:15:47;;;;;;;2.10;1.47;;;10.90;96.00;;;;;;5066211;28;20478;-68
2022/03/15 08:18:16;;;;;;;1.83;1.70;;;10.90;96.00;;;;;;5071830;28;20936;-66
2022/03/15 08:20:45;;;;;;;1.33;1.07;;;10.90;96.00;;;;;;5070896;28;20556;-67
2022/03/15 08:23:13;;;;;;;2.40;1.40;;;10.90;96.00;;;;;;5057545;28;20442;-68
2022/03/15 08:25:41;;;;;;;1.40;0.80;;;10.90;96.00;;;;;;5051870;28;20962;-68
2022/03/15 08:28:09;;;;;;;2.30;1.17;;;10.90;96.10;;;;;;5071380;28;20491;-69
2022/03/15 08:30:37;;;;;;;1.43;1.20;;;10.90;96.00;;;;;;5052382;28;20443;-66
2022/03/15 08:33:06;;;;;;;1.70;1.40;;;10.90;96.10;;;;;;5059362;28;20877;-68
2022/03/15 08:35:34;;;;;;;1.37;1.27;;;10.90;96.10;;;;;;5063957;28;20441;-68
2022/03/15 08:38:03;;;;;;;3.47;1.50;;;10.90;96.10;;;;;;5070214;28;21122;-67
2022/03/15 08:40:32;;;;;;;1.67;1.50;;;10.90;96.10;;;;;;5070848;28;20452;-66
2022/03/15 08:43:02;;;;;;;1.30;1.20;;;10.90;96.10;;;;;;5034001;28;20470;-68
2022/03/15 08:45:30;;;;;;;1.90;1.47;;;10.90;96.20;;;;;;5062444;28;20458;-69
2022/03/15 08:47:58;;;;;;;1.53;1.00;;;10.90;96.20;;;;;;5071432;28;20441;-66
2022/03/15 08:50:27;;;;;;;2.00;1.40;;;10.90;96.70;;;;;;5052799;28;20480;-67
2022/03/15 08:52:55;;;;;;;2.37;1.30;;;10.90;96.20;;;;;;5069779;28;20462;-68
2022/03/15 08:55:26;;;;;;;1.77;1.10;;;10.90;96.20;;;;;;5068736;28;20423;-69
2022/03/15 08:57:57;;;;;;;1.47;1.23;;;10.90;96.20;;;;;;5070321;28;20484;-68
2022/03/15 09:00:26;;;;;;;1.73;1.60;;;10.90;96.30;;;;;;5070290;28;20914;-69
2022/03/15 09:02:54;;;;;;;1.90;1.73;;;10.90;96.30;;;;;;5070480;28;20511;-69
2022/03/15 09:05:22;;;;;;;1.30;1.20;;;10.80;96.30;;;;;;5071333;28;20461;-68
2022/03/15 09:07:51;;;;;;;2.30;1.30;;;10.80;96.80;;;;;;5071039;28;20458;-68
2022/03/15 09:10:20;;;;;;;1.50;1.40;;;10.80;96.40;;;;;;5071293;28;20491;-67
2022/03/15 09:12:52;;;;;;;2.17;1.50;;;10.80;96.30;;;;;;5070480;28;20547;-68
2022/03/15 09:15:22;;;;;;;1.30;1.20;;;10.80;96.30;;;;;;5058063;28;20439;-67
2022/03/15 09:17:51;;;;;;;2.20;1.13;;;10.80;96.30;;;;;;5070492;28;20533;-69
2022/03/15 09:20:24;;;;;;;1.50;1.13;;;10.80;96.30;;;;;;5070346;28;20465;-67
2022/03/15 09:22:53;;;;;;;1.97;1.50;;;10.80;96.30;;;;;;5068658;28;20943;-69
2022/03/15 09:25:23;;;;;;;1.50;1.40;;;10.80;96.40;;;;;;5070862;28;20473;-69
2022/03/15 09:27:56;;;;;;;1.80;1.60;;;10.80;96.50;;;;;;5072490;28;20491;-69
2022/03/15 09:30:24;;;;;;;1.37;1.10;;;10.80;96.40;;;;;;5074154;28;20502;-67
2022/03/15 09:32:52;;;;;;;2.13;1.43;;;10.80;96.40;;;;;;5074611;28;20450;-68
2022/03/15 09:35:20;;;;;;;2.53;2.00;;;10.80;96.40;;;;;;5074672;28;20406;-67
2022/03/15 09:37:49;;;;;;;2.40;1.40;;;10.80;96.50;;;;;;5061552;28;20462;-68
2022/03/15 09:40:22;;;;;;;3.13;1.57;;;10.80;96.70;;;;;;5074714;28;20835;-68
2022/03/15 09:42:51;;;;;;;3.53;1.90;;;10.80;96.80;;;;;;5074643;28;20931;-68
2022/03/15 09:45:23;;;;;;;2.17;1.73;;;10.80;96.70;;;;;;5070239;28;20458;-69
2022/03/15 09:47:55;;;;;;;1.87;1.50;;;10.80;96.90;;;;;;5074231;28;20801;-69
2022/03/15 09:50:24;;;;;;;2.40;1.40;;;10.80;96.70;;;;;;5074424;28;20912;-72
2022/03/15 09:52:55;;;;;;;2.17;1.50;;;10.80;97.00;;;;;;5070236;28;20503;-69
2022/03/15 09:55:24;;;;;;;1.50;1.13;;;10.80;97.00;;;;;;5074016;28;20426;-69
2022/03/15 09:57:53;;;;;;;3.10;1.63;;;10.80;96.90;;;;;;5073775;28;20453;-68
2022/03/15 10:00:25;;;;;;;1.63;1.50;;;10.80;96.80;;;;;;5069837;28;20472;-70
2022/03/15 10:02:54;;;;;;;2.47;1.70;;;10.80;97.00;;;;;;5073313;28;20457;-67
2022/03/15 10:05:23;;;;;;;1.70;1.50;;;10.80;97.00;;;;;;5073728;28;20450;-67
2022/03/15 10:07:53;;;;;;;2.70;1.80;;;10.70;96.90;;;;;;5065059;28;20472;-69
2022/03/15 10:10:22;;;;;;;2.17;1.40;;;10.70;96.90;;;;;;5070775;28;20484;-71
2022/03/15 10:12:51;;;;;;;1.40;1.30;;;10.70;96.90;;;;;;5072481;28;20533;-67
2022/03/15 10:15:22;;;;;;;2.00;1.50;;;10.70;96.80;;;;;;5052884;28;20497;-68
2022/03/15 10:17:53;;;;;;;2.07;1.13;;;10.70;96.80;;;;;;5056745;28;20497;-71
2022/03/15 10:20:29;;;;;;;2.20;1.63;;;10.70;96.80;;;;;;5073824;28;20443;-69
2022/03/15 10:22:58;;;;;;;1.60;1.50;;;10.70;97.30;;;;;;5055176;28;20498;-68
2022/03/15 10:25:34;;;;;;;1.80;1.70;;;10.70;96.90;;;;;;5070634;28;20477;-68
2022/03/15 10:28:05;;;;;;;1.30;1.20;;;10.70;97.00;;;;;;5073718;28;20530;-68
2022/03/15 10:30:35;;;;;;;1.50;1.33;;;10.70;96.90;;;;;;5066215;28;20449;-68
2022/03/15 10:33:05;;;;;;;1.67;1.30;;;10.70;96.90;;;;;;5065986;28;20458;-67
2022/03/15 10:35:38;;;;;;;2.70;2.10;;;10.70;96.90;;;;;;5070439;28;20471;-68
2022/03/15 10:38:07;;;;;;;2.03;1.60;;;10.70;96.90;;;;;;5070177;28;20430;-68
2022/03/15 10:40:37;;;;;;;1.60;1.50;;;10.70;97.00;;;;;;5072750;28;20820;-70
2022/03/15 10:43:07;;;;;;;1.97;1.10;;;10.70;97.00;;;;;;5072998;28;21014;-69
2022/03/15 10:45:40;;;;;;;3.60;1.77;;;10.70;97.00;;;;;;5070355;28;20478;-67
2022/03/15 10:48:20;;;;;;;1.70;1.60;;;10.70;96.90;;;;;;5073440;28;20430;-69
2022/03/15 10:50:58;;;;;;;1.43;1.33;;;10.70;97.00;;;;;;5054627;28;20913;-67
2022/03/15 10:53:29;;;;;;;1.50;1.40;;;10.70;97.10;;;;;;5061827;28;20911;-68
2022/03/15 10:56:13;;;;;;;2.93;1.87;;;10.70;97.00;;;;;;5072683;28;20482;-68
2022/03/15 10:58:45;;;;;;;2.00;1.80;;;10.60;96.90;;;;;;5073157;28;20483;-67
2022/03/15 11:01:17;;;;;;;2.00;1.40;;;10.60;97.00;;;;;;5062628;28;20492;-69
2022/03/15 11:03:54;;;;;;;4.47;1.93;;;10.60;97.60;;;;;;5072769;28;20560;-68
2022/03/15 11:06:34;;;;;;;1.30;1.20;;;10.60;97.00;;;;;;5055159;28;20473;-68
2022/03/15 11:09:16;;;;;;;1.20;1.10;;;10.60;96.90;;;;;;5054766;28;20491;-67
2022/03/15 11:11:47;;;;;;;1.80;1.23;;;10.60;96.90;;;;;;5060570;28;21060;-68
2022/03/15 11:14:15;;;;;;;1.57;1.10;;;10.60;97.00;;;;;;5069776;28;20442;-69
2022/03/15 11:16:46;;;;;;;2.00;1.80;;;10.60;97.20;;;;;;5063415;28;20466;-69
2022/03/15 11:19:17;;;;;;;1.93;1.70;;;10.60;97.50;;;;;;5071794;28;20435;-69
2022/03/15 11:21:47;;;;;;;2.30;1.83;;;10.60;97.40;;;;;;5063815;28;20536;-68
2022/03/15 11:24:18;;;;;;;1.90;1.80;;;10.60;97.60;;;;;;5058235;28;20430;-68
2022/03/15 11:26:47;;;;;;;2.73;1.83;;;10.60;97.50;;;;;;5071762;28;20500;-67
2022/03/15 11:29:23;;;;;;;2.10;1.40;;;10.60;97.50;;;;;;5072501;28;20434;-69
2022/03/15 11:31:55;;;;;;;2.43;1.43;;;10.60;97.70;;;;;;5065064;28;20986;-68
2022/03/15 11:34:26;;;;;;;1.30;1.20;;;10.60;97.70;;;;;;5061584;28;20445;-69
2022/03/15 11:36:54;;;;;;;2.00;1.40;;;10.60;97.80;;;;;;5064098;28;20473;-67
2022/03/15 11:39:24;;;;;;;1.53;1.40;;;10.60;97.30;;;;;;5071688;28;20483;-68
2022/03/15 11:41:53;;;;;;;1.30;1.10;;;10.60;97.20;;;;;;5065506;28;20474;-68
2022/03/15 11:44:29;;;;;;;1.90;1.50;;;10.60;97.30;;;;;;5072103;28;20936;-68
2022/03/15 11:47:11;;;;;;;1.30;1.20;;;10.60;97.70;;;;;;5059088;28;20540;-69
2022/03/15 11:49:48;;;;;;;2.50;1.93;;;10.60;97.70;;;;;;5052042;28;20407;-69
2022/03/15 11:52:27;;;;;;;1.67;1.20;;;10.60;97.60;;;;;;5053752;28;20570;-67
2022/03/15 11:55:02;;;;;;;2.20;1.30;;;10.60;97.50;;;;;;5052139;28;20426;-69
2022/03/15 11:57:34;;;;;;;2.00;1.40;;;10.60;97.60;;;;;;5068588;28;20454;-69
2022/03/15 12:00:03;;;;;;;1.57;1.47;;;10.60;97.50;;;;;;5065311;28;20432;-68
2022/03/15 12:02:49;;;;;;;1.87;1.70;;;10.60;97.40;;;;;;5071460;28;20469;-70
2022/03/15 12:05:20;;;;;;;1.50;1.40;;;10.60;97.70;;;;;;5071892;28;20782;-68
2022/03/15 12:08:11;;;;;;;1.93;1.63;;;10.60;97.50;;;;;;5053644;28;20567;-67
2022/03/15 12:10:44;;;;;;;1.90;1.70;;;10.60;97.70;;;;;;5062002;28;20442;-69
2022/03/15 12:13:39;;;;;;;4.47;1.90;;;10.60;98.00;;;;;;5071822;28;20438;-68
2022/03/15 12:16:13;;;;;;;1.30;1.20;;;10.60;97.90;;;;;;5049936;28;21085;-70
2022/03/15 12:18:48;;;;;;;1.97;1.40;;;10.60;97.50;;;;;;5071451;28;20963;-68
2022/03/15 12:21:17;;;;;;;2.03;1.30;;;10.60;97.50;;;;;;5066517;28;20521;-68
2022/03/15 12:23:46;;;;;;;2.00;1.00;;;10.60;97.50;;;;;;5054676;28;20423;-68
2022/03/15 12:26:21;;;;;;;1.20;1.10;;;10.50;97.40;;;;;;5071305;28;20462;-68
2022/03/15 12:29:02;;;;;;;1.53;1.43;;;10.50;97.50;;;;;;5070811;28;20843;-67
2022/03/15 12:31:36;;;;;;;2.47;1.60;;;10.50;97.50;;;;;;5061932;28;20469;-69
2022/03/15 12:34:08;;;;;;;2.80;1.90;;;10.50;97.80;;;;;;5070888;28;20438;-67
2022/03/15 12:36:41;;;;;;;2.10;1.60;;;10.50;98.50;;;;;;5059592;28;20478;-66
2022/03/15 12:39:14;;;;;;;4.17;3.03;;;10.50;98.50;;;;;;5071053;28;20430;-69
2022/03/15 12:41:44;;;;;;;2.80;2.03;;;10.50;98.50;;;;;;5070388;28;20840;-67
2022/03/15 12:44:13;;;;;;;3.37;2.30;;;10.50;98.50;;;;;;5071120;28;20467;-69
2022/03/15 12:46:42;;;;;;;4.60;2.50;;;10.50;98.40;;;;;;5069116;28;20458;-68
2022/03/15 12:49:17;;;;;;;4.33;3.37;;;10.50;98.50;;;;;;5070631;28;20428;-66
2022/03/15 12:51:46;;;;;;;3.40;3.00;;;10.50;98.70;;;;;;5049233;28;20575;-68
2022/03/15 12:54:15;;;;;;;2.93;2.40;;;10.50;98.80;;;;;;5066851;28;20434;-67
2022/03/15 12:56:45;;;;;;;3.43;2.40;;;10.50;99.00;;;;;;5070080;28;20971;-66
2022/03/15 12:59:22;;;;;;;5.70;2.77;;;10.50;99.10;;;;;;5050120;28;20492;-68
2022/03/15 13:01:52;;;;;;;4.00;2.43;;;10.50;99.40;;;;;;5070459;28;20470;-67